Wetterdaten: Woche 18.05.15 - 24.05.15 (KW21)
Datum Zeit Temp. A. Feuchte A. Luftdruck Regen Wind Richtung Sonnenschein ET UV Solar Taupunkt Windchill Windben
18.05.2015 00:00 7,6 C 82 % 1020,7 hPa 0,0 l/m 0,0 km/h (0 Bft) N 0,00 h 0,025 mm 0,0 UV-I 0 W/m 4,8 C 7,6 C 0,0 km/h (0 Bft)
18.05.2015 01:00 6,2 C 87 % 1020,3 hPa 0,0 l/m 0,1 km/h (0 Bft) N 0,00 h 0,000 mm 0,0 UV-I 0 W/m 4,1 C 6,2 C 0,5 km/h (0 Bft)
18.05.2015 02:00 5,3 C 88 % 1019,7 hPa 0,0 l/m 0,1 km/h (0 Bft) N 0,00 h 0,000 mm 0,0 UV-I 0 W/m 3,5 C 5,3 C 0,2 km/h (0 Bft)
18.05.2015 03:00 4,4 C 90 % 1019,2 hPa 0,0 l/m 0,0 km/h (0 Bft) N 0,00 h 0,000 mm 0,0 UV-I 0 W/m 2,9 C 4,4 C 0,0 km/h (0 Bft)
18.05.2015 04:00 3,7 C 91 % 1018,6 hPa 0,0 l/m 0,0 km/h (0 Bft) N 0,00 h 0,000 mm 0,0 UV-I 0 W/m 2,5 C 3,7 C 0,0 km/h (0 Bft)
18.05.2015 05:00 3,3 C 92 % 1018,3 hPa 0,0 l/m 0,0 km/h (0 Bft) N 0,00 h 0,000 mm 0,0 UV-I 11 W/m 2,2 C 3,3 C 0,0 km/h (0 Bft)
18.05.2015 06:00 3,7 C 92 % 1017,8 hPa 0,0 l/m 0,0 km/h (0 Bft) N 0,00 h 0,000 mm 0,0 UV-I 29 W/m 2,5 C 3,7 C 0,0 km/h (0 Bft)
18.05.2015 07:00 6,7 C 85 % 1017,3 hPa 0,0 l/m 0,0 km/h (0 Bft) N 0,68 h 0,000 mm 0,8 UV-I 199 W/m 4,3 C 6,7 C 0,0 km/h (0 Bft)
18.05.2015 08:00 11,2 C 71 % 1016,6 hPa 0,0 l/m 0,1 km/h (0 Bft) N 1,00 h 0,076 mm 1,6 UV-I 449 W/m 6,2 C 11,2 C 0,6 km/h (0 Bft)
18.05.2015 09:00 14,9 C 58 % 1015,9 hPa 0,0 l/m 4,7 km/h (1 Bft) W-SW 1,00 h 0,229 mm 2,8 UV-I 618 W/m 6,6 C 14,6 C 9,4 km/h (2 Bft)
18.05.2015 10:00 16,2 C 52 % 1015,0 hPa 0,0 l/m 7,5 km/h (2 Bft) S 1,00 h 0,356 mm 3,9 UV-I 732 W/m 6,2 C 15,3 C 14,3 km/h (3 Bft)
18.05.2015 11:00 17,3 C 50 % 1014,3 hPa 0,0 l/m 5,8 km/h (2 Bft) S 1,00 h 0,432 mm 5,0 UV-I 852 W/m 6,9 C 16,9 C 11,4 km/h (2 Bft)
18.05.2015 12:00 17,8 C 50 % 1013,3 hPa 0,0 l/m 4,8 km/h (1 Bft) S 1,00 h 0,483 mm 5,0 UV-I 661 W/m 7,2 C 17,5 C 10,1 km/h (2 Bft)
18.05.2015 13:00 18,8 C 48 % 1012,1 hPa 0,0 l/m 8,6 km/h (2 Bft) S-SO 1,00 h 0,381 mm 5,7 UV-I 772 W/m 7,5 C 17,7 C 15,8 km/h (3 Bft)
18.05.2015 14:00 19,6 C 47 % 1010,9 hPa 0,0 l/m 5,9 km/h (2 Bft) S 1,00 h 0,508 mm 5,1 UV-I 753 W/m 8,0 C 19,3 C 12,7 km/h (3 Bft)
18.05.2015 15:00 20,3 C 46 % 1009,7 hPa 0,0 l/m 6,3 km/h (2 Bft) SW 1,00 h 0,483 mm 4,0 UV-I 685 W/m 8,3 C 19,9 C 12,5 km/h (2 Bft)
18.05.2015 16:00 20,6 C 47 % 1008,6 hPa 0,0 l/m 5,9 km/h (2 Bft) S-SO 1,00 h 0,432 mm 2,9 UV-I 575 W/m 8,8 C 20,1 C 11,5 km/h (2 Bft)
18.05.2015 17:00 20,7 C 45 % 1007,5 hPa 0,0 l/m 5,4 km/h (2 Bft) S 1,00 h 0,381 mm 1,6 UV-I 349 W/m 8,4 C 20,4 C 10,7 km/h (2 Bft)
18.05.2015 18:00 20,7 C 42 % 1006,7 hPa 0,0 l/m 5,3 km/h (1 Bft) S-SW 1,00 h 0,229 mm 0,8 UV-I 72 W/m 7,2 C 20,5 C 11,2 km/h (2 Bft)
18.05.2015 19:00 19,9 C 44 % 1006,2 hPa 0,0 l/m 2,5 km/h (1 Bft) SW 0,37 h 0,102 mm 0,5 UV-I 39 W/m 7,4 C 19,8 C 6,2 km/h (2 Bft)
18.05.2015 20:00 18,3 C 49 % 1005,9 hPa 0,0 l/m 0,1 km/h (0 Bft) N 0,00 h 0,051 mm 0,0 UV-I 12 W/m 7,4 C 18,3 C 0,8 km/h (0 Bft)
18.05.2015 21:00 15,8 C 61 % 1006,1 hPa 0,0 l/m 0,0 km/h (0 Bft) N 0,00 h 0,025 mm 0,0 UV-I 0 W/m 8,1 C 15,8 C 0,3 km/h (0 Bft)
18.05.2015 22:00 13,0 C 74 % 1006,1 hPa 0,0 l/m 0,0 km/h (0 Bft) N 0,00 h 0,000 mm 0,0 UV-I 0 W/m 8,5 C 13,0 C 0,2 km/h (0 Bft)
18.05.2015 23:00 11,6 C 79 % 1006,0 hPa 0,0 l/m 0,0 km/h (0 Bft) N 0,00 h 0,025 mm 0,0 UV-I 0 W/m 8,0 C 11,6 C 0,2 km/h (0 Bft)
19.05.2015 00:00 10,3 C 84 % 1006,0 hPa 0,0 l/m 0,1 km/h (0 Bft) N 0,00 h 0,025 mm 0,0 UV-I 0 W/m 7,7 C 10,3 C 0,5 km/h (0 Bft)
19.05.2015 01:00 9,0 C 88 % 1005,9 hPa 0,0 l/m 0,0 km/h (0 Bft) N 0,00 h 0,000 mm 0,0 UV-I 0 W/m 7,0 C 9,0 C 0,1 km/h (0 Bft)
19.05.2015 02:00 8,6 C 88 % 1005,8 hPa 0,0 l/m 0,0 km/h (0 Bft) N 0,00 h 0,000 mm 0,0 UV-I 0 W/m 6,8 C 8,6 C 0,0 km/h (0 Bft)
19.05.2015 03:00 8,2 C 90 % 1005,7 hPa 0,0 l/m 0,0 km/h (0 Bft) N 0,00 h 0,000 mm 0,0 UV-I 0 W/m 6,6 C 8,2 C 0,0 km/h (0 Bft)
19.05.2015 04:00 7,6 C 90 % 1005,6 hPa 0,0 l/m 0,0 km/h (0 Bft) N 0,00 h 0,000 mm 0,0 UV-I 0 W/m 6,2 C 7,6 C 0,0 km/h (0 Bft)
19.05.2015 05:00 7,2 C 92 % 1005,9 hPa 0,0 l/m 0,0 km/h (0 Bft) N 0,00 h 0,000 mm 0,0 UV-I 9 W/m 6,0 C 7,2 C 0,1 km/h (0 Bft)
19.05.2015 06:00 8,6 C 89 % 1006,2 hPa 0,0 l/m 0,0 km/h (0 Bft) N 0,00 h 0,000 mm 0,0 UV-I 24 W/m 6,8 C 8,6 C 0,6 km/h (0 Bft)
19.05.2015 07:00 12,0 C 78 % 1006,5 hPa 0,0 l/m 0,8 km/h (0 Bft) N 0,78 h 0,000 mm 0,7 UV-I 155 W/m 8,3 C 12,0 C 2,7 km/h (1 Bft)
19.05.2015 08:00 14,4 C 70 % 1006,7 hPa 0,0 l/m 4,1 km/h (1 Bft) S-SW 1,00 h 0,076 mm 1,3 UV-I 345 W/m 9,1 C 14,3 C 8,9 km/h (2 Bft)
19.05.2015 09:00 15,8 C 65 % 1006,8 hPa 0,0 l/m 7,8 km/h (2 Bft) W-SW 1,00 h 0,178 mm 1,9 UV-I 355 W/m 9,2 C 14,9 C 14,3 km/h (3 Bft)
19.05.2015 10:00 15,9 C 63 % 1007,2 hPa 0,0 l/m 8,4 km/h (2 Bft) SW 1,00 h 0,229 mm 1,4 UV-I 207 W/m 8,9 C 14,7 C 16,7 km/h (3 Bft)
19.05.2015 11:00 16,2 C 61 % 1007,5 hPa 0,0 l/m 8,5 km/h (2 Bft) W-SW 1,00 h 0,152 mm 2,1 UV-I 267 W/m 8,7 C 15,0 C 17,3 km/h (3 Bft)
19.05.2015 12:00 16,8 C 59 % 1007,6 hPa 0,0 l/m 9,1 km/h (2 Bft) W-SW 1,00 h 0,178 mm 3,0 UV-I 359 W/m 8,8 C 15,4 C 19,3 km/h (3 Bft)
19.05.2015 13:00 16,1 C 64 % 1007,8 hPa 0,0 l/m 5,2 km/h (1 Bft) W 1,00 h 0,254 mm 1,6 UV-I 177 W/m 9,2 C 15,7 C 11,6 km/h (2 Bft)
19.05.2015 14:00 16,9 C 62 % 1008,0 hPa 0,0 l/m 8,0 km/h (2 Bft) W-SW 1,00 h 0,127 mm 3,4 UV-I 450 W/m 9,5 C 15,8 C 16,4 km/h (3 Bft)
19.05.2015 15:00 17,2 C 59 % 1008,0 hPa 0,0 l/m 7,4 km/h (2 Bft) W 1,00 h 0,305 mm 2,5 UV-I 353 W/m 9,1 C 16,4 C 15,9 km/h (3 Bft)
19.05.2015 16:00 16,4 C 58 % 1007,8 hPa 0,0 l/m 6,8 km/h (2 Bft) W-SW 1,00 h 0,254 mm 1,3 UV-I 205 W/m 8,2 C 15,7 C 14,6 km/h (3 Bft)
19.05.2015 17:00 16,1 C 60 % 1008,0 hPa 0,0 l/m 4,9 km/h (1 Bft) W-SW 1,00 h 0,152 mm 0,8 UV-I 145 W/m 8,3 C 15,8 C 11,9 km/h (2 Bft)
19.05.2015 18:00 15,7 C 60 % 1008,2 hPa 0,0 l/m 3,7 km/h (1 Bft) SW 1,00 h 0,102 mm 0,6 UV-I 95 W/m 8,1 C 15,6 C 9,3 km/h (2 Bft)
19.05.2015 19:00 15,1 C 60 % 1008,6 hPa 0,0 l/m 5,4 km/h (1 Bft) W-SW 0,20 h 0,076 mm 0,5 UV-I 40 W/m 7,3 C 14,8 C 12,0 km/h (2 Bft)
19.05.2015 20:00 14,0 C 61 % 1009,2 hPa 0,0 l/m 1,9 km/h (1 Bft) W 0,00 h 0,051 mm 0,0 UV-I 16 W/m 6,7 C 14,0 C 5,9 km/h (2 Bft)
19.05.2015 21:00 13,3 C 61 % 1010,0 hPa 0,0 l/m 0,7 km/h (0 Bft) N 0,00 h 0,025 mm 0,0 UV-I 0 W/m 6,0 C 13,3 C 2,7 km/h (1 Bft)
19.05.2015 22:00 12,5 C 62 % 1010,5 hPa 0,0 l/m 0,1 km/h (0 Bft) N 0,00 h 0,000 mm 0,0 UV-I 0 W/m 5,3 C 12,5 C 0,6 km/h (0 Bft)
19.05.2015 23:00 11,8 C 64 % 1010,7 hPa 0,0 l/m 0,2 km/h (0 Bft) N 0,00 h 0,025 mm 0,0 UV-I 0 W/m 5,2 C 11,8 C 0,7 km/h (0 Bft)
20.05.2015 00:00 11,3 C 66 % 1010,9 hPa 0,0 l/m 0,0 km/h (0 Bft) N 0,00 h 0,025 mm 0,0 UV-I 0 W/m 5,1 C 11,3 C 0,3 km/h (0 Bft)
20.05.2015 01:00 10,5 C 70 % 1010,7 hPa 0,0 l/m 0,0 km/h (0 Bft) N 0,00 h 0,025 mm 0,0 UV-I 0 W/m 5,3 C 10,5 C 0,0 km/h (0 Bft)
20.05.2015 02:00 9,8 C 76 % 1010,5 hPa 0,0 l/m 0,0 km/h (0 Bft) N 0,00 h 0,025 mm 0,0 UV-I 0 W/m 5,7 C 9,8 C 0,0 km/h (0 Bft)
20.05.2015 03:00 9,4 C 81 % 1010,4 hPa 0,0 l/m 0,0 km/h (0 Bft) N 0,00 h 0,025 mm 0,0 UV-I 0 W/m 6,3 C 9,4 C 0,0 km/h (0 Bft)
20.05.2015 04:00 9,3 C 82 % 1010,5 hPa 0,0 l/m 0,0 km/h (0 Bft) N 0,00 h 0,000 mm 0,0 UV-I 0 W/m 6,3 C 9,3 C 0,1 km/h (0 Bft)
20.05.2015 05:00 9,3 C 81 % 1010,7 hPa 0,0 l/m 0,0 km/h (0 Bft) N 0,00 h 0,000 mm 0,0 UV-I 11 W/m 6,1 C 9,3 C 0,0 km/h (0 Bft)
20.05.2015 06:00 9,0 C 84 % 1010,8 hPa 0,0 l/m 0,0 km/h (0 Bft) N 0,00 h 0,000 mm 0,0 UV-I 26 W/m 6,4 C 9,0 C 0,0 km/h (0 Bft)
20.05.2015 07:00 9,4 C 83 % 1011,2 hPa 0,0 l/m 0,0 km/h (0 Bft) N 0,25 h 0,025 mm 0,0 UV-I 45 W/m 6,6 C 9,4 C 0,1 km/h (0 Bft)
20.05.2015 08:00 9,6 C 82 % 1011,6 hPa 0,0 l/m 0,0 km/h (0 Bft) N 0,40 h 0,025 mm 0,5 UV-I 55 W/m 6,8 C 9,6 C 0,2 km/h (0 Bft)
20.05.2015 09:00 10,1 C 80 % 1011,8 hPa 0,0 l/m 0,6 km/h (0 Bft) N 1,00 h 0,025 mm 0,8 UV-I 144 W/m 6,9 C 10,1 C 1,8 km/h (1 Bft)
20.05.2015 10:00 10,4 C 75 % 1012,1 hPa 0,2 l/m 0,3 km/h (0 Bft) N 1,00 h 0,076 mm 1,2 UV-I 186 W/m 6,1 C 10,4 C 1,1 km/h (1 Bft)
20.05.2015 11:00 10,2 C 72 % 1012,5 hPa 0,0 l/m 0,1 km/h (0 Bft) N 1,00 h 0,102 mm 1,1 UV-I 156 W/m 5,3 C 10,2 C 0,5 km/h (0 Bft)
20.05.2015 12:00 10,6 C 72 % 1013,0 hPa 0,0 l/m 1,4 km/h (1 Bft) S-SO 1,00 h 0,076 mm 1,7 UV-I 238 W/m 5,7 C 10,6 C 3,6 km/h (1 Bft)
20.05.2015 13:00 11,2 C 68 % 1013,3 hPa 0,0 l/m 0,9 km/h (0 Bft) N 1,00 h 0,127 mm 1,5 UV-I 199 W/m 5,5 C 11,2 C 2,4 km/h (1 Bft)
20.05.2015 14:00 11,0 C 70 % 1013,5 hPa 0,0 l/m 2,5 km/h (1 Bft) S 1,00 h 0,102 mm 1,5 UV-I 204 W/m 5,7 C 10,9 C 6,5 km/h (2 Bft)
20.05.2015 15:00 10,8 C 74 % 1013,9 hPa 0,0 l/m 3,7 km/h (1 Bft) S 1,00 h 0,102 mm 1,0 UV-I 147 W/m 6,3 C 10,7 C 8,5 km/h (2 Bft)
20.05.2015 16:00 9,8 C 81 % 1014,3 hPa 0,0 l/m 4,5 km/h (1 Bft) S 1,00 h 0,076 mm 0,6 UV-I 93 W/m 6,8 C 9,5 C 10,0 km/h (2 Bft)
20.05.2015 17:00 8,9 C 89 % 1014,9 hPa 0,0 l/m 1,7 km/h (1 Bft) S 1,00 h 0,051 mm 0,6 UV-I 100 W/m 7,2 C 8,8 C 5,4 km/h (1 Bft)
20.05.2015 18:00 9,2 C 90 % 1015,2 hPa 0,0 l/m 2,5 km/h (1 Bft) S 1,00 h 0,051 mm 0,6 UV-I 112 W/m 7,6 C 9,0 C 6,4 km/h (2 Bft)
20.05.2015 19:00 9,0 C 90 % 1015,8 hPa 0,0 l/m 2,3 km/h (1 Bft) S-SW 0,30 h 0,051 mm 0,0 UV-I 39 W/m 7,4 C 8,9 C 6,6 km/h (2 Bft)
20.05.2015 20:00 8,5 C 92 % 1016,4 hPa 0,2 l/m 0,3 km/h (0 Bft) N 0,00 h 0,025 mm 0,0 UV-I 8 W/m 7,3 C 8,5 C 1,4 km/h (1 Bft)
20.05.2015 21:00 8,2 C 93 % 1016,7 hPa 0,0 l/m 0,0 km/h (0 Bft) N 0,00 h 0,000 mm 0,0 UV-I 0 W/m 7,1 C 8,2 C 0,0 km/h (0 Bft)
20.05.2015 22:00 8,1 C 94 % 1017,2 hPa 0,0 l/m 0,0 km/h (0 Bft) N 0,00 h 0,000 mm 0,0 UV-I 0 W/m 7,2 C 8,1 C 0,0 km/h (0 Bft)
20.05.2015 23:00 8,1 C 94 % 1017,8 hPa 0,0 l/m 0,0 km/h (0 Bft) N 0,00 h 0,000 mm 0,0 UV-I 0 W/m 7,2 C 8,1 C 0,1 km/h (0 Bft)
21.05.2015 00:00 8,1 C 95 % 1018,0 hPa 0,0 l/m 0,0 km/h (0 Bft) N 0,00 h 0,000 mm 0,0 UV-I 0 W/m 7,3 C 8,1 C 0,2 km/h (0 Bft)
21.05.2015 01:00 8,1 C 95 % 1018,1 hPa 0,0 l/m 0,0 km/h (0 Bft) N 0,00 h 0,000 mm 0,0 UV-I 0 W/m 7,3 C 8,1 C 0,0 km/h (0 Bft)
21.05.2015 02:00 7,6 C 95 % 1018,5 hPa 0,0 l/m 0,0 km/h (0 Bft) N 0,00 h 0,000 mm 0,0 UV-I 0 W/m 6,8 C 7,6 C 0,0 km/h (0 Bft)
21.05.2015 03:00 7,0 C 96 % 1019,0 hPa 0,0 l/m 0,0 km/h (0 Bft) N 0,00 h 0,000 mm 0,0 UV-I 0 W/m 6,4 C 7,0 C 0,0 km/h (0 Bft)
21.05.2015 04:00 6,9 C 96 % 1019,2 hPa 0,0 l/m 0,0 km/h (0 Bft) N 0,00 h 0,000 mm 0,0 UV-I 0 W/m 6,3 C 6,9 C 0,0 km/h (0 Bft)
21.05.2015 05:00 6,7 C 96 % 1019,4 hPa 0,0 l/m 0,0 km/h (0 Bft) N 0,00 h 0,000 mm 0,0 UV-I 19 W/m 6,2 C 6,7 C 0,3 km/h (0 Bft)
21.05.2015 06:00 6,9 C 97 % 1020,2 hPa 0,0 l/m 0,0 km/h (0 Bft) N 0,45 h 0,000 mm 0,0 UV-I 48 W/m 6,4 C 6,9 C 0,0 km/h (0 Bft)
21.05.2015 07:00 7,2 C 96 % 1020,8 hPa 0,0 l/m 0,4 km/h (0 Bft) N 1,00 h 0,025 mm 0,6 UV-I 88 W/m 6,5 C 7,2 C 1,5 km/h (1 Bft)
21.05.2015 08:00 9,0 C 86 % 1021,2 hPa 0,0 l/m 2,0 km/h (1 Bft) N 1,00 h 0,051 mm 0,9 UV-I 173 W/m 6,8 C 9,0 C 5,0 km/h (1 Bft)
21.05.2015 09:00 10,4 C 80 % 1021,7 hPa 0,0 l/m 1,3 km/h (1 Bft) N 1,00 h 0,076 mm 1,4 UV-I 272 W/m 7,2 C 10,4 C 3,9 km/h (1 Bft)
21.05.2015 10:00 12,3 C 73 % 1021,8 hPa 0,0 l/m 0,8 km/h (0 Bft) N 1,00 h 0,127 mm 2,6 UV-I 451 W/m 7,6 C 12,3 C 3,2 km/h (1 Bft)
21.05.2015 11:00 13,8 C 63 % 1022,0 hPa 0,0 l/m 2,7 km/h (1 Bft) NW 1,00 h 0,229 mm 2,8 UV-I 437 W/m 6,9 C 13,7 C 6,6 km/h (2 Bft)
21.05.2015 12:00 12,7 C 63 % 1022,4 hPa 0,0 l/m 4,5 km/h (1 Bft) N 1,00 h 0,254 mm 1,6 UV-I 189 W/m 5,8 C 12,5 C 9,3 km/h (2 Bft)
21.05.2015 13:00 12,6 C 64 % 1022,5 hPa 0,0 l/m 1,0 km/h (0 Bft) N 1,00 h 0,127 mm 1,4 UV-I 169 W/m 6,0 C 12,6 C 2,5 km/h (1 Bft)
21.05.2015 14:00 12,2 C 71 % 1022,6 hPa 0,0 l/m 0,9 km/h (0 Bft) O-SO 1,00 h 0,102 mm 1,0 UV-I 137 W/m 7,1 C 12,2 C 2,5 km/h (1 Bft)
21.05.2015 15:00 12,1 C 74 % 1022,9 hPa 0,0 l/m 1,1 km/h (1 Bft) O-NO 1,00 h 0,076 mm 1,2 UV-I 188 W/m 7,7 C 12,1 C 3,3 km/h (1 Bft)
21.05.2015 16:00 13,0 C 68 % 1022,9 hPa 0,0 l/m 1,0 km/h (0 Bft) O 1,00 h 0,101 mm 1,9 UV-I 318 W/m 7,3 C 13,0 C 2,6 km/h (1 Bft)
21.05.2015 17:00 13,2 C 68 % 1023,0 hPa 1,4 l/m 0,7 km/h (0 Bft) N 0,65 h 0,178 mm 1,0 UV-I 108 W/m 7,3 C 13,1 C 1,8 km/h (1 Bft)
21.05.2015 18:00 9,2 C 90 % 1023,7 hPa 6,0 l/m 0,7 km/h (0 Bft) N 0,48 h 0,051 mm 0,0 UV-I 49 W/m 7,6 C 9,1 C 2,1 km/h (1 Bft)
21.05.2015 19:00 9,7 C 87 % 1024,1 hPa 0,0 l/m 0,2 km/h (0 Bft) N 0,90 h 0,025 mm 0,0 UV-I 57 W/m 7,7 C 9,7 C 1,1 km/h (1 Bft)
21.05.2015 20:00 9,4 C 89 % 1024,6 hPa 0,0 l/m 0,0 km/h (0 Bft) N 0,00 h 0,025 mm 0,0 UV-I 22 W/m 7,6 C 9,4 C 0,0 km/h (0 Bft)
21.05.2015 21:00 8,3 C 94 % 1025,2 hPa 0,0 l/m 0,0 km/h (0 Bft) N 0,00 h 0,000 mm 0,0 UV-I 0 W/m 7,4 C 8,3 C 0,0 km/h (0 Bft)
21.05.2015 22:00 6,8 C 95 % 1025,8 hPa 0,0 l/m 0,1 km/h (0 Bft) N 0,00 h 0,000 mm 0,0 UV-I 0 W/m 6,2 C 6,8 C 0,2 km/h (0 Bft)
21.05.2015 23:00 6,0 C 96 % 1026,2 hPa 0,0 l/m 0,0 km/h (0 Bft) N 0,00 h 0,000 mm 0,0 UV-I 0 W/m 5,4 C 6,0 C 0,2 km/h (0 Bft)
22.05.2015 00:00 5,3 C 96 % 1026,5 hPa 0,0 l/m 0,0 km/h (0 Bft) N 0,00 h 0,000 mm 0,0 UV-I 0 W/m 4,7 C 5,3 C 0,0 km/h (0 Bft)
22.05.2015 01:00 4,2 C 96 % 1026,4 hPa 0,0 l/m 0,0 km/h (0 Bft) N 0,00 h 0,000 mm 0,0 UV-I 0 W/m 3,7 C 4,2 C 0,1 km/h (0 Bft)
22.05.2015 02:00 3,3 C 97 % 1026,5 hPa 0,0 l/m 0,1 km/h (0 Bft) N 0,00 h 0,000 mm 0,0 UV-I 0 W/m 2,9 C 3,3 C 0,3 km/h (0 Bft)
22.05.2015 03:00 2,4 C 97 % 1026,6 hPa 0,0 l/m 0,0 km/h (0 Bft) N 0,00 h 0,000 mm 0,0 UV-I 0 W/m 1,9 C 2,4 C 0,0 km/h (0 Bft)
22.05.2015 04:00 2,1 C 97 % 1026,5 hPa 0,0 l/m 0,4 km/h (0 Bft) N 0,00 h 0,000 mm 0,0 UV-I 0 W/m 1,7 C 2,1 C 0,9 km/h (0 Bft)
22.05.2015 05:00 1,3 C 97 % 1026,6 hPa 0,0 l/m 0,1 km/h (0 Bft) N 0,00 h 0,000 mm 0,0 UV-I 12 W/m 0,9 C 1,3 C 0,5 km/h (0 Bft)
22.05.2015 06:00 1,5 C 97 % 1026,7 hPa 0,0 l/m 0,0 km/h (0 Bft) N 0,00 h 0,000 mm 0,0 UV-I 27 W/m 1,1 C 1,5 C 0,0 km/h (0 Bft)
22.05.2015 07:00 4,0 C 98 % 1026,8 hPa 0,0 l/m 0,0 km/h (0 Bft) N 0,70 h 0,000 mm 0,8 UV-I 206 W/m 3,7 C 4,0 C 0,1 km/h (0 Bft)
22.05.2015 08:00 8,5 C 89 % 1026,7 hPa 0,0 l/m 0,5 km/h (0 Bft) N 1,00 h 0,076 mm 1,4 UV-I 450 W/m 6,8 C 8,5 C 1,2 km/h (1 Bft)
22.05.2015 09:00 11,7 C 70 % 1026,6 hPa 0,0 l/m 2,7 km/h (1 Bft) N 1,00 h 0,203 mm 2,3 UV-I 560 W/m 6,3 C 11,7 C 6,1 km/h (2 Bft)
22.05.2015 10:00 13,2 C 58 % 1026,4 hPa 0,0 l/m 0,9 km/h (0 Bft) N 1,00 h 0,279 mm 3,6 UV-I 702 W/m 5,1 C 13,2 C 2,7 km/h (1 Bft)
22.05.2015 11:00 14,6 C 50 % 1025,9 hPa 0,0 l/m 1,6 km/h (1 Bft) N 1,00 h 0,356 mm 4,7 UV-I 794 W/m 4,4 C 14,6 C 4,1 km/h (1 Bft)
22.05.2015 12:00 15,8 C 47 % 1025,4 hPa 0,0 l/m 2,9 km/h (1 Bft) N 1,00 h 0,406 mm 5,5 UV-I 926 W/m 4,4 C 15,7 C 5,6 km/h (2 Bft)
22.05.2015 13:00 17,0 C 43 % 1024,5 hPa 0,0 l/m 5,5 km/h (2 Bft) N 1,00 h 0,457 mm 5,5 UV-I 814 W/m 4,3 C 16,5 C 11,5 km/h (2 Bft)
22.05.2015 14:00 18,0 C 40 % 1023,8 hPa 0,0 l/m 3,0 km/h (1 Bft) NO 1,00 h 0,457 mm 5,0 UV-I 719 W/m 4,2 C 17,8 C 6,7 km/h (2 Bft)
22.05.2015 15:00 17,8 C 40 % 1023,2 hPa 0,0 l/m 4,0 km/h (1 Bft) N 1,00 h 0,432 mm 3,9 UV-I 693 W/m 3,8 C 17,6 C 8,4 km/h (2 Bft)
22.05.2015 16:00 18,0 C 38 % 1022,5 hPa 0,0 l/m 3,6 km/h (1 Bft) N-NO 1,00 h 0,406 mm 2,7 UV-I 532 W/m 3,6 C 17,8 C 7,9 km/h (2 Bft)
22.05.2015 17:00 16,5 C 42 % 1022,0 hPa 0,0 l/m 1,5 km/h (1 Bft) N 1,00 h 0,330 mm 1,1 UV-I 191 W/m 3,7 C 16,4 C 3,9 km/h (1 Bft)
22.05.2015 18:00 15,8 C 46 % 1021,7 hPa 0,0 l/m 1,1 km/h (1 Bft) N 1,00 h 0,127 mm 0,7 UV-I 141 W/m 4,4 C 15,8 C 3,8 km/h (1 Bft)
22.05.2015 19:00 15,3 C 48 % 1021,6 hPa 0,0 l/m 1,2 km/h (1 Bft) N 0,98 h 0,102 mm 0,5 UV-I 85 W/m 4,4 C 15,3 C 3,3 km/h (1 Bft)
22.05.2015 20:00 14,4 C 50 % 1021,7 hPa 0,0 l/m 0,6 km/h (0 Bft) N 0,00 h 0,051 mm 0,0 UV-I 23 W/m 4,1 C 14,4 C 2,1 km/h (1 Bft)
22.05.2015 21:00 13,0 C 54 % 1022,0 hPa 0,0 l/m 0,0 km/h (0 Bft) N 0,00 h 0,025 mm 0,0 UV-I 5 W/m 3,8 C 13,0 C 0,0 km/h (0 Bft)
22.05.2015 22:00 11,7 C 62 % 1022,2 hPa 0,0 l/m 0,0 km/h (0 Bft) N 0,00 h 0,000 mm 0,0 UV-I 0 W/m 4,5 C 11,7 C 0,3 km/h (0 Bft)
22.05.2015 23:00 9,5 C 74 % 1022,1 hPa 0,0 l/m 0,0 km/h (0 Bft) N 0,00 h 0,025 mm 0,0 UV-I 0 W/m 5,1 C 9,5 C 0,0 km/h (0 Bft)
23.05.2015 00:00 7,7 C 81 % 1022,0 hPa 0,0 l/m 0,0 km/h (0 Bft) N 0,00 h 0,025 mm 0,0 UV-I 0 W/m 4,8 C 7,7 C 0,0 km/h (0 Bft)
23.05.2015 01:00 6,8 C 85 % 1021,5 hPa 0,0 l/m 0,0 km/h (0 Bft) N 0,00 h 0,000 mm 0,0 UV-I 0 W/m 4,4 C 6,8 C 0,0 km/h (0 Bft)
23.05.2015 02:00 5,6 C 90 % 1021,0 hPa 0,0 l/m 0,0 km/h (0 Bft) N 0,00 h 0,000 mm 0,0 UV-I 0 W/m 4,0 C 5,6 C 0,0 km/h (0 Bft)
23.05.2015 03:00 4,6 C 92 % 1020,4 hPa 0,0 l/m 0,0 km/h (0 Bft) N 0,00 h 0,000 mm 0,0 UV-I 0 W/m 3,4 C 4,6 C 0,0 km/h (0 Bft)
23.05.2015 04:00 3,9 C 93 % 1019,9 hPa 0,0 l/m 0,0 km/h (0 Bft) N 0,00 h 0,000 mm 0,0 UV-I 0 W/m 2,8 C 3,9 C 0,0 km/h (0 Bft)
23.05.2015 05:00 3,3 C 94 % 1019,8 hPa 0,0 l/m 0,0 km/h (0 Bft) N 0,00 h 0,000 mm 0,0 UV-I 11 W/m 2,3 C 3,3 C 0,0 km/h (0 Bft)
23.05.2015 06:00 4,3 C 93 % 1019,9 hPa 0,0 l/m 0,0 km/h (0 Bft) N 0,48 h 0,000 mm 0,5 UV-I 52 W/m 3,3 C 4,3 C 0,1 km/h (0 Bft)
23.05.2015 07:00 7,4 C 88 % 1019,8 hPa 0,0 l/m 0,1 km/h (0 Bft) N 1,00 h 0,025 mm 0,6 UV-I 132 W/m 5,5 C 7,4 C 0,4 km/h (0 Bft)
23.05.2015 08:00 10,0 C 82 % 1019,5 hPa 0,0 l/m 0,0 km/h (0 Bft) N 1,00 h 0,051 mm 1,2 UV-I 215 W/m 7,0 C 10,0 C 0,1 km/h (0 Bft)
23.05.2015 09:00 14,9 C 60 % 1019,2 hPa 0,0 l/m 5,2 km/h (1 Bft) N 1,00 h 0,102 mm 2,7 UV-I 619 W/m 7,0 C 14,3 C 9,8 km/h (2 Bft)
23.05.2015 10:00 16,5 C 51 % 1018,9 hPa 0,0 l/m 8,8 km/h (2 Bft) N-NO 1,00 h 0,330 mm 3,8 UV-I 689 W/m 6,2 C 15,2 C 15,2 km/h (3 Bft)
23.05.2015 11:00 17,8 C 46 % 1018,2 hPa 0,0 l/m 11,7 km/h (2 Bft) N-NO 1,00 h 0,432 mm 5,1 UV-I 803 W/m 5,9 C 15,8 C 19,8 km/h (3 Bft)
23.05.2015 12:00 18,5 C 45 % 1017,6 hPa 0,0 l/m 10,4 km/h (2 Bft) N 1,00 h 0,533 mm 5,2 UV-I 728 W/m 6,2 C 16,8 C 17,5 km/h (3 Bft)
23.05.2015 13:00 18,2 C 46 % 1017,2 hPa 0,0 l/m 13,4 km/h (3 Bft) N 1,00 h 0,457 mm 4,5 UV-I 579 W/m 6,4 C 15,6 C 21,9 km/h (4 Bft)
23.05.2015 14:00 18,6 C 46 % 1016,9 hPa 0,0 l/m 12,9 km/h (3 Bft) N 1,00 h 0,432 mm 4,8 UV-I 657 W/m 6,7 C 16,3 C 21,3 km/h (4 Bft)
23.05.2015 15:00 17,5 C 48 % 1016,7 hPa 0,0 l/m 11,4 km/h (2 Bft) N-NO 1,00 h 0,483 mm 2,7 UV-I 369 W/m 6,5 C 15,4 C 18,9 km/h (3 Bft)
23.05.2015 16:00 17,5 C 50 % 1016,3 hPa 0,0 l/m 9,1 km/h (2 Bft) N-NO 1,00 h 0,305 mm 2,0 UV-I 319 W/m 6,8 C 16,1 C 16,5 km/h (3 Bft)
23.05.2015 17:00 16,9 C 51 % 1016,2 hPa 0,0 l/m 9,2 km/h (2 Bft) N-NO 1,00 h 0,229 mm 0,8 UV-I 131 W/m 6,7 C 15,5 C 16,0 km/h (3 Bft)
23.05.2015 18:00 16,3 C 55 % 1016,2 hPa 0,0 l/m 6,6 km/h (2 Bft) N-NO 0,88 h 0,127 mm 0,6 UV-I 73 W/m 7,2 C 15,6 C 13,2 km/h (3 Bft)
23.05.2015 19:00 15,6 C 59 % 1016,3 hPa 0,0 l/m 5,4 km/h (1 Bft) N 0,00 h 0,076 mm 0,0 UV-I 33 W/m 7,5 C 15,1 C 11,3 km/h (2 Bft)
23.05.2015 20:00 15,0 C 61 % 1016,6 hPa 0,0 l/m 3,5 km/h (1 Bft) N 0,00 h 0,051 mm 0,0 UV-I 11 W/m 7,6 C 14,7 C 8,3 km/h (2 Bft)
23.05.2015 21:00 14,4 C 65 % 1017,0 hPa 0,0 l/m 2,1 km/h (1 Bft) N 0,00 h 0,025 mm 0,0 UV-I 0 W/m 7,8 C 14,3 C 6,6 km/h (2 Bft)
23.05.2015 22:00 13,9 C 67 % 1017,3 hPa 0,0 l/m 1,3 km/h (1 Bft) N 0,00 h 0,025 mm 0,0 UV-I 0 W/m 8,0 C 13,9 C 4,6 km/h (1 Bft)
23.05.2015 23:00 13,4 C 70 % 1017,5 hPa 0,0 l/m 0,7 km/h (0 Bft) N 0,00 h 0,025 mm 0,0 UV-I 0 W/m 8,1 C 13,4 C 2,8 km/h (1 Bft)
24.05.2015 00:00 12,9 C 74 % 1017,5 hPa 0,0 l/m 0,3 km/h (0 Bft) N 0,00 h 0,025 mm 0,0 UV-I 0 W/m 8,3 C 12,9 C 1,2 km/h (1 Bft)
24.05.2015 01:00 12,6 C 76 % 1017,6 hPa 0,0 l/m 0,3 km/h (0 Bft) N 0,00 h 0,025 mm 0,0 UV-I 0 W/m 8,5 C 12,6 C 1,9 km/h (1 Bft)
24.05.2015 02:00 12,4 C 78 % 1017,5 hPa 0,0 l/m 0,5 km/h (0 Bft) N 0,00 h 0,025 mm 0,0 UV-I 0 W/m 8,5 C 12,4 C 2,0 km/h (1 Bft)
24.05.2015 03:00 12,2 C 80 % 1017,4 hPa 0,0 l/m 0,6 km/h (0 Bft) N 0,00 h 0,025 mm 0,0 UV-I 0 W/m 8,7 C 12,2 C 2,5 km/h (1 Bft)
24.05.2015 04:00 11,8 C 82 % 1017,2 hPa 0,0 l/m 0,0 km/h (0 Bft) N 0,00 h 0,025 mm 0,0 UV-I 0 W/m 8,9 C 11,8 C 0,2 km/h (0 Bft)
24.05.2015 05:00 11,7 C 85 % 1017,2 hPa 0,0 l/m 0,0 km/h (0 Bft) N 0,00 h 0,025 mm 0,0 UV-I 10 W/m 9,2 C 11,7 C 0,3 km/h (0 Bft)
24.05.2015 06:00 11,7 C 87 % 1017,4 hPa 0,0 l/m 0,4 km/h (0 Bft) N 0,28 h 0,000 mm 0,0 UV-I 36 W/m 9,6 C 11,7 C 1,2 km/h (1 Bft)
24.05.2015 07:00 12,3 C 86 % 1017,5 hPa 0,0 l/m 0,6 km/h (0 Bft) N 1,00 h 0,025 mm 0,6 UV-I 81 W/m 10,1 C 12,3 C 2,2 km/h (1 Bft)
24.05.2015 08:00 12,9 C 84 % 1017,8 hPa 0,0 l/m 2,0 km/h (1 Bft) N 1,00 h 0,051 mm 0,7 UV-I 119 W/m 10,3 C 12,9 C 4,7 km/h (1 Bft)
24.05.2015 09:00 14,0 C 81 % 1017,9 hPa 0,0 l/m 1,3 km/h (1 Bft) N 1,00 h 0,076 mm 1,4 UV-I 220 W/m 10,8 C 14,0 C 3,1 km/h (1 Bft)
24.05.2015 10:00 15,0 C 77 % 1018,0 hPa 0,0 l/m 1,8 km/h (1 Bft) N 1,00 h 0,127 mm 2,2 UV-I 297 W/m 11,1 C 15,0 C 4,4 km/h (1 Bft)
24.05.2015 11:00 16,1 C 73 % 1018,0 hPa 0,0 l/m 1,3 km/h (1 Bft) N 1,00 h 0,152 mm 2,7 UV-I 331 W/m 11,3 C 16,0 C 3,7 km/h (1 Bft)
24.05.2015 12:00 15,8 C 70 % 1017,9 hPa 0,0 l/m 0,5 km/h (0 Bft) N 1,00 h 0,178 mm 1,9 UV-I 224 W/m 10,4 C 15,8 C 1,7 km/h (1 Bft)
24.05.2015 13:00 15,8 C 68 % 1017,9 hPa 0,0 l/m 0,4 km/h (0 Bft) N 1,00 h 0,127 mm 1,4 UV-I 164 W/m 9,9 C 15,8 C 1,4 km/h (1 Bft)
24.05.2015 14:00 16,1 C 69 % 1017,7 hPa 0,0 l/m 1,1 km/h (0 Bft) N 1,00 h 0,102 mm 1,8 UV-I 213 W/m 10,5 C 16,2 C 2,7 km/h (1 Bft)
24.05.2015 15:00 16,6 C 67 % 1017,5 hPa 0,0 l/m 0,7 km/h (0 Bft) N 1,00 h 0,127 mm 1,8 UV-I 219 W/m 10,4 C 16,6 C 2,2 km/h (1 Bft)
24.05.2015 16:00 14,9 C 74 % 1017,6 hPa 0,0 l/m 1,3 km/h (1 Bft) SO 0,35 h 0,127 mm 0,6 UV-I 44 W/m 10,4 C 14,9 C 4,8 km/h (1 Bft)
24.05.2015 17:00 13,9 C 81 % 1017,4 hPa 0,0 l/m 0,6 km/h (0 Bft) N 0,38 h 0,025 mm 0,0 UV-I 44 W/m 10,6 C 13,9 C 2,3 km/h (1 Bft)
24.05.2015 18:00 13,6 C 80 % 1017,2 hPa 0,0 l/m 0,5 km/h (0 Bft) N 1,00 h 0,025 mm 0,0 UV-I 70 W/m 10,2 C 13,6 C 1,3 km/h (1 Bft)
24.05.2015 19:00 13,7 C 79 % 1017,2 hPa 0,0 l/m 0,0 km/h (0 Bft) N 0,32 h 0,051 mm 0,0 UV-I 42 W/m 10,2 C 13,7 C 0,1 km/h (0 Bft)
24.05.2015 20:00 13,3 C 84 % 1017,1 hPa 0,0 l/m 0,1 km/h (0 Bft) N 0,00 h 0,025 mm 0,0 UV-I 15 W/m 10,5 C 13,3 C 0,5 km/h (0 Bft)
24.05.2015 21:00 12,8 C 88 % 1017,2 hPa 0,0 l/m 0,0 km/h (0 Bft) N 0,00 h 0,000 mm 0,0 UV-I 0 W/m 10,8 C 12,8 C 0,2 km/h (0 Bft)
24.05.2015 22:00 12,1 C 91 % 1017,1 hPa 0,0 l/m 0,0 km/h (0 Bft) N 0,00 h 0,000 mm 0,0 UV-I 0 W/m 10,6 C 12,1 C 0,0 km/h (0 Bft)
24.05.2015 23:00 11,6 C 93 % 1017,1 hPa 0,0 l/m 0,0 km/h (0 Bft) N 0,00 h 0,000 mm 0,0 UV-I 0 W/m 10,5 C 11,6 C 0,0 km/h (0 Bft)
Min-Datum _ 22.05.15 22.05.15 19.05.15 - 18.05.15 - - - - - 22.05.15 22.05.15 18.05.15
_ Min-Zeit 05:55 16:29 03:00 - 00:00 - - - - - 05:55 05:55 00:00
Minimum _ 0,9 C 33 % 1005,6 hPa - 0,0 km/h (0 Bft) - - - - - 0,5 C 0,9 C 0,0 km/h (0 Bft)
Max-Datum _ 18.05.15 22.05.15 22.05.15 21.05.15 19.05.15 - 21.05.15 23.05.15 19.05.15 23.05.15 24.05.15 18.05.15 19.05.15
_ Max-Zeit 16:31 06:43 06:20 18:03 11:31 - 13:28 12:00 12:34 13:28 11:19 16:32 12:35
Maximum _ 21,2 C 98 % 1026,8 hPa 6,0 l/m 22,5 km/h
W-SW (4 Bft)
- 0,08 h 0,533 mm 7,1 UV-I 1085 W/m 12,4 C 21,2 C 37,0 km/h
W-SW (5 Bft)
Durchschnitt _ 11,8 C 74 % 1016,6 hPa #7,8 l/m 2,0 km/h (1 Bft) N #83:51 h #17,721 mm 2,1 UV-I 256 W/m 6,7 C 11,6 C 4,3 km/h (1 Bft)